sensor_id;sensor_type;location;lat;lon;timestamp;pressure;altitude;pressure_sealevel;temperature;humidity
19672;BME280;9983;51.114;13.788;2023-09-07T00:03:50;100072.84;;;17.42;100.00
19672;BME280;9983;51.114;13.788;2023-09-07T00:08:50;100078.88;;;17.37;100.00
19672;BME280;9983;51.114;13.788;2023-09-07T00:13:50;100080.13;;;17.41;100.00
19672;BME280;9983;51.114;13.788;2023-09-07T00:18:51;100083.56;;;17.70;100.00
19672;BME280;9983;51.114;13.788;2023-09-07T00:23:51;100088.50;;;17.47;100.00
19672;BME280;9983;51.114;13.788;2023-09-07T00:28:51;100091.75;;;17.22;100.00
19672;BME280;9983;51.114;13.788;2023-09-07T00:33:52;100083.47;;;17.37;100.00
19672;BME280;9983;51.114;13.788;2023-09-07T00:38:52;100090.19;;;17.61;100.00
19672;BME280;9983;51.114;13.788;2023-09-07T00:43:52;100098.84;;;17.23;100.00
19672;BME280;9983;51.114;13.788;2023-09-07T00:48:52;100098.41;;;17.13;100.00
19672;BME280;9983;51.114;13.788;2023-09-07T00:53:53;100103.19;;;16.77;100.00
19672;BME280;9983;51.114;13.788;2023-09-07T00:58:54;100101.25;;;16.98;100.00
19672;BME280;9983;51.114;13.788;2023-09-07T01:03:54;100093.31;;;16.97;100.00
19672;BME280;9983;51.114;13.788;2023-09-07T01:09:01;100089.16;;;17.01;100.00
19672;BME280;9983;51.114;13.788;2023-09-07T01:14:04;100079.72;;;17.31;100.00
19672;BME280;9983;51.114;13.788;2023-09-07T01:19:06;100080.00;;;17.02;100.00
19672;BME280;9983;51.114;13.788;2023-09-07T01:24:08;100081.66;;;17.03;100.00
19672;BME280;9983;51.114;13.788;2023-09-07T01:29:09;100081.84;;;16.60;100.00
19672;BME280;9983;51.114;13.788;2023-09-07T01:34:09;100076.13;;;16.49;100.00
19672;BME280;9983;51.114;13.788;2023-09-07T01:39:10;100077.94;;;16.42;100.00
19672;BME280;9983;51.114;13.788;2023-09-07T01:44:10;100080.78;;;16.27;100.00
19672;BME280;9983;51.114;13.788;2023-09-07T01:49:11;100080.38;;;16.30;100.00
19672;BME280;9983;51.114;13.788;2023-09-07T01:54:11;100085.47;;;16.40;100.00
19672;BME280;9983;51.114;13.788;2023-09-07T01:59:11;100087.53;;;16.38;100.00
19672;BME280;9983;51.114;13.788;2023-09-07T02:04:11;100084.63;;;16.39;100.00
19672;BME280;9983;51.114;13.788;2023-09-07T02:09:12;100083.31;;;16.35;100.00
19672;BME280;9983;51.114;13.788;2023-09-07T02:14:12;100078.06;;;16.27;100.00
19672;BME280;9983;51.114;13.788;2023-09-07T02:19:12;100071.72;;;16.13;100.00
19672;BME280;9983;51.114;13.788;2023-09-07T02:24:13;100071.91;;;16.12;100.00
19672;BME280;9983;51.114;13.788;2023-09-07T02:29:13;100074.47;;;16.20;100.00
19672;BME280;9983;51.114;13.788;2023-09-07T02:34:13;100077.72;;;16.09;100.00
19672;BME280;9983;51.114;13.788;2023-09-07T02:39:13;100075.69;;;16.17;100.00
19672;BME280;9983;51.114;13.788;2023-09-07T02:44:14;100074.78;;;16.04;100.00
19672;BME280;9983;51.114;13.788;2023-09-07T02:49:14;100080.19;;;16.04;100.00
19672;BME280;9983;51.114;13.788;2023-09-07T02:54:15;100071.47;;;16.08;100.00
19672;BME280;9983;51.114;13.788;2023-09-07T02:59:15;100074.81;;;16.10;100.00
19672;BME280;9983;51.114;13.788;2023-09-07T03:04:15;100081.84;;;16.05;100.00
19672;BME280;9983;51.114;13.788;2023-09-07T03:09:15;100084.56;;;15.83;100.00
19672;BME280;9983;51.114;13.788;2023-09-07T03:14:16;100082.25;;;15.80;100.00
19672;BME280;9983;51.114;13.788;2023-09-07T03:19:17;100080.03;;;15.90;100.00
19672;BME280;9983;51.114;13.788;2023-09-07T03:24:18;100078.41;;;15.89;100.00
19672;BME280;9983;51.114;13.788;2023-09-07T03:29:18;100074.53;;;15.77;100.00
19672;BME280;9983;51.114;13.788;2023-09-07T03:34:18;100073.31;;;15.80;100.00
19672;BME280;9983;51.114;13.788;2023-09-07T03:39:19;100076.06;;;15.65;100.00
19672;BME280;9983;51.114;13.788;2023-09-07T03:44:22;100079.31;;;15.54;100.00
19672;BME280;9983;51.114;13.788;2023-09-07T03:49:22;100080.97;;;15.55;100.00
19672;BME280;9983;51.114;13.788;2023-09-07T03:54:22;100085.75;;;15.38;100.00
19672;BME280;9983;51.114;13.788;2023-09-07T03:59:23;100091.00;;;15.25;100.00
19672;BME280;9983;51.114;13.788;2023-09-07T04:04:23;100085.38;;;15.05;100.00
19672;BME280;9983;51.114;13.788;2023-09-07T04:09:23;100085.66;;;15.32;100.00
19672;BME280;9983;51.114;13.788;2023-09-07T04:14:24;100084.91;;;15.38;100.00
19672;BME280;9983;51.114;13.788;2023-09-07T04:19:24;100090.16;;;15.25;100.00
19672;BME280;9983;51.114;13.788;2023-09-07T04:24:24;100092.22;;;15.23;100.00
19672;BME280;9983;51.114;13.788;2023-09-07T04:29:25;100095.41;;;15.11;100.00
19672;BME280;9983;51.114;13.788;2023-09-07T04:34:25;100099.75;;;15.27;100.00
19672;BME280;9983;51.114;13.788;2023-09-07T04:39:25;100087.72;;;15.30;100.00
19672;BME280;9983;51.114;13.788;2023-09-07T04:44:26;100095.63;;;14.95;100.00
19672;BME280;9983;51.114;13.788;2023-09-07T04:49:27;100100.50;;;15.21;100.00
19672;BME280;9983;51.114;13.788;2023-09-07T04:54:27;100106.41;;;14.95;100.00
19672;BME280;9983;51.114;13.788;2023-09-07T04:59:28;100095.13;;;15.21;100.00
19672;BME280;9983;51.114;13.788;2023-09-07T05:04:28;100101.50;;;15.35;100.00
19672;BME280;9983;51.114;13.788;2023-09-07T05:09:29;100103.72;;;15.46;100.00
19672;BME280;9983;51.114;13.788;2023-09-07T05:14:30;100107.22;;;15.82;100.00
19672;BME280;9983;51.114;13.788;2023-09-07T05:19:30;100104.50;;;15.82;100.00
19672;BME280;9983;51.114;13.788;2023-09-07T05:24:30;100107.09;;;15.90;100.00
19672;BME280;9983;51.114;13.788;2023-09-07T05:29:31;100113.91;;;16.08;100.00
19672;BME280;9983;51.114;13.788;2023-09-07T05:34:31;100116.75;;;16.00;100.00
19672;BME280;9983;51.114;13.788;2023-09-07T05:39:31;100126.41;;;16.09;100.00
19672;BME280;9983;51.114;13.788;2023-09-07T05:44:31;100126.03;;;16.12;100.00
19672;BME280;9983;51.114;13.788;2023-09-07T05:49:32;100132.69;;;16.16;100.00
19672;BME280;9983;51.114;13.788;2023-09-07T05:54:32;100135.78;;;16.34;100.00
19672;BME280;9983;51.114;13.788;2023-09-07T05:59:32;100129.25;;;16.22;100.00
19672;BME280;9983;51.114;13.788;2023-09-07T06:04:32;100146.03;;;16.66;100.00
19672;BME280;9983;51.114;13.788;2023-09-07T06:09:33;100133.41;;;16.52;100.00
19672;BME280;9983;51.114;13.788;2023-09-07T06:14:33;100149.16;;;16.98;100.00
19672;BME280;9983;51.114;13.788;2023-09-07T06:19:33;100135.97;;;17.29;100.00
19672;BME280;9983;51.114;13.788;2023-09-07T06:24:34;100139.38;;;17.51;100.00
19672;BME280;9983;51.114;13.788;2023-09-07T06:29:34;100141.56;;;17.75;100.00
19672;BME280;9983;51.114;13.788;2023-09-07T06:34:35;100139.09;;;17.87;100.00
19672;BME280;9983;51.114;13.788;2023-09-07T06:39:35;100142.06;;;18.05;100.00
19672;BME280;9983;51.114;13.788;2023-09-07T06:44:36;100145.19;;;18.29;100.00
19672;BME280;9983;51.114;13.788;2023-09-07T06:49:38;100145.59;;;18.52;100.00
19672;BME280;9983;51.114;13.788;2023-09-07T06:54:38;100149.59;;;18.69;100.00
19672;BME280;9983;51.114;13.788;2023-09-07T06:59:38;100153.50;;;19.00;100.00
19672;BME280;9983;51.114;13.788;2023-09-07T07:04:39;100157.41;;;19.17;100.00
19672;BME280;9983;51.114;13.788;2023-09-07T07:09:39;100155.66;;;19.42;100.00
19672;BME280;9983;51.114;13.788;2023-09-07T07:14:39;100150.94;;;19.69;100.00
19672;BME280;9983;51.114;13.788;2023-09-07T07:19:40;100147.84;;;19.97;100.00
19672;BME280;9983;51.114;13.788;2023-09-07T07:24:41;100151.94;;;20.13;100.00
19672;BME280;9983;51.114;13.788;2023-09-07T07:29:42;100151.97;;;20.37;100.00
19672;BME280;9983;51.114;13.788;2023-09-07T07:34:42;100156.91;;;20.72;100.00
19672;BME280;9983;51.114;13.788;2023-09-07T07:39:43;100163.31;;;21.02;100.00
19672;BME280;9983;51.114;13.788;2023-09-07T07:44:43;100160.94;;;21.31;100.00
19672;BME280;9983;51.114;13.788;2023-09-07T07:49:43;100157.06;;;21.68;100.00
19672;BME280;9983;51.114;13.788;2023-09-07T07:54:44;100158.19;;;21.79;100.00
19672;BME280;9983;51.114;13.788;2023-09-07T07:59:44;100151.66;;;22.10;100.00
19672;BME280;9983;51.114;13.788;2023-09-07T08:04:44;100155.41;;;22.27;100.00
19672;BME280;9983;51.114;13.788;2023-09-07T08:09:45;100155.94;;;22.70;100.00
19672;BME280;9983;51.114;13.788;2023-09-07T08:14:45;100154.78;;;22.90;100.00
19672;BME280;9983;51.114;13.788;2023-09-07T08:19:46;100155.00;;;23.00;100.00
19672;BME280;9983;51.114;13.788;2023-09-07T08:24:48;100154.84;;;23.18;100.00
19672;BME280;9983;51.114;13.788;2023-09-07T08:29:49;100148.06;;;23.32;90.82
19672;BME280;9983;51.114;13.788;2023-09-07T08:34:51;100137.16;;;23.61;90.62
19672;BME280;9983;51.114;13.788;2023-09-07T08:39:56;100145.56;;;23.71;89.26
19672;BME280;9983;51.114;13.788;2023-09-07T08:45:00;100138.63;;;23.80;92.40
19672;BME280;9983;51.114;13.788;2023-09-07T08:50:05;100142.66;;;24.06;83.30
19672;BME280;9983;51.114;13.788;2023-09-07T08:55:09;100144.75;;;24.15;82.32
19672;BME280;9983;51.114;13.788;2023-09-07T09:00:11;100145.22;;;24.24;77.26
19672;BME280;9983;51.114;13.788;2023-09-07T09:05:19;100141.22;;;24.32;73.71
19672;BME280;9983;51.114;13.788;2023-09-07T09:10:20;100145.38;;;24.51;73.30
19672;BME280;9983;51.114;13.788;2023-09-07T09:15:22;100152.53;;;24.52;70.89
19672;BME280;9983;51.114;13.788;2023-09-07T09:20:25;100144.00;;;24.87;70.94
19672;BME280;9983;51.114;13.788;2023-09-07T09:25:31;100147.31;;;25.06;74.37
19672;BME280;9983;51.114;13.788;2023-09-07T09:30:31;100150.50;;;24.98;72.99
19672;BME280;9983;51.114;13.788;2023-09-07T09:35:31;100142.13;;;25.26;68.09
19672;BME280;9983;51.114;13.788;2023-09-07T09:40:33;100150.41;;;25.31;66.79
19672;BME280;9983;51.114;13.788;2023-09-07T09:45:34;100144.53;;;25.44;66.53
19672;BME280;9983;51.114;13.788;2023-09-07T09:50:36;100133.16;;;25.57;62.12
19672;BME280;9983;51.114;13.788;2023-09-07T09:55:39;100126.78;;;25.74;60.96
19672;BME280;9983;51.114;13.788;2023-09-07T10:00:47;100131.97;;;25.97;66.00
19672;BME280;9983;51.114;13.788;2023-09-07T10:05:48;100134.78;;;26.02;58.98
19672;BME280;9983;51.114;13.788;2023-09-07T10:10:53;100127.06;;;26.04;61.20
19672;BME280;9983;51.114;13.788;2023-09-07T10:16:00;100124.31;;;26.26;60.38
19672;BME280;9983;51.114;13.788;2023-09-07T10:21:00;100115.25;;;26.30;53.07
19672;BME280;9983;51.114;13.788;2023-09-07T10:26:04;100128.09;;;26.52;51.59
19672;BME280;9983;51.114;13.788;2023-09-07T10:31:06;100124.84;;;26.60;53.34
19672;BME280;9983;51.114;13.788;2023-09-07T10:36:07;100118.97;;;26.88;50.91
19672;BME280;9983;51.114;13.788;2023-09-07T10:41:07;100109.88;;;27.35;51.85
19672;BME280;9983;51.114;13.788;2023-09-07T10:46:07;100107.22;;;27.65;48.70
19672;BME280;9983;51.114;13.788;2023-09-07T10:51:08;100098.47;;;27.99;48.00
19672;BME280;9983;51.114;13.788;2023-09-07T10:56:08;100096.84;;;28.58;49.69
19672;BME280;9983;51.114;13.788;2023-09-07T11:01:09;100095.16;;;28.83;47.98
19672;BME280;9983;51.114;13.788;2023-09-07T11:06:16;100093.19;;;29.63;45.12
19672;BME280;9983;51.114;13.788;2023-09-07T11:11:19;100093.88;;;30.23;44.14
19672;BME280;9983;51.114;13.788;2023-09-07T11:16:19;100091.69;;;30.82;43.28
19672;BME280;9983;51.114;13.788;2023-09-07T11:21:20;100092.25;;;31.51;44.22
19672;BME280;9983;51.114;13.788;2023-09-07T11:26:21;100090.22;;;31.80;40.86
19672;BME280;9983;51.114;13.788;2023-09-07T11:31:21;100095.09;;;32.99;38.82
19672;BME280;9983;51.114;13.788;2023-09-07T11:36:21;100081.75;;;33.29;37.97
19672;BME280;9983;51.114;13.788;2023-09-07T11:41:24;100085.84;;;34.39;34.82
19672;BME280;9983;51.114;13.788;2023-09-07T11:46:24;100084.56;;;35.64;33.52
19672;BME280;9983;51.114;13.788;2023-09-07T11:51:25;100073.13;;;37.19;30.73
19672;BME280;9983;51.114;13.788;2023-09-07T11:56:25;100091.75;;;37.86;30.76
19672;BME280;9983;51.114;13.788;2023-09-07T12:01:25;100070.69;;;38.99;28.11
19672;BME280;9983;51.114;13.788;2023-09-07T12:06:27;100068.09;;;39.31;27.69
19672;BME280;9983;51.114;13.788;2023-09-07T12:11:27;100067.41;;;39.09;28.36
19672;BME280;9983;51.114;13.788;2023-09-07T12:16:28;100063.91;;;39.49;26.90
19672;BME280;9983;51.114;13.788;2023-09-07T12:21:28;100059.91;;;39.26;27.29
19672;BME280;9983;51.114;13.788;2023-09-07T12:26:28;100053.22;;;37.20;29.99
19672;BME280;9983;51.114;13.788;2023-09-07T12:31:28;100042.38;;;37.19;29.10
19672;BME280;9983;51.114;13.788;2023-09-07T12:36:29;100041.94;;;35.89;31.88
19672;BME280;9983;51.114;13.788;2023-09-07T12:41:30;100032.03;;;36.00;31.08
19672;BME280;9983;51.114;13.788;2023-09-07T12:46:33;100029.16;;;35.06;32.48
19672;BME280;9983;51.114;13.788;2023-09-07T12:51:33;100024.84;;;34.91;33.07
19672;BME280;9983;51.114;13.788;2023-09-07T12:56:33;100016.91;;;34.36;33.24
19672;BME280;9983;51.114;13.788;2023-09-07T13:01:34;100016.34;;;33.81;33.94
19672;BME280;9983;51.114;13.788;2023-09-07T13:06:34;100025.31;;;33.14;34.42
19672;BME280;9983;51.114;13.788;2023-09-07T13:11:35;100021.13;;;33.31;35.32
19672;BME280;9983;51.114;13.788;2023-09-07T13:16:35;100019.56;;;33.38;36.94
19672;BME280;9983;51.114;13.788;2023-09-07T13:21:36;100011.81;;;33.71;33.08
19672;BME280;9983;51.114;13.788;2023-09-07T13:26:36;100012.63;;;33.85;34.42
19672;BME280;9983;51.114;13.788;2023-09-07T13:31:37;100004.00;;;34.80;31.79
19672;BME280;9983;51.114;13.788;2023-09-07T13:36:37;99990.22;;;34.75;32.78
19672;BME280;9983;51.114;13.788;2023-09-07T13:41:38;99992.78;;;34.62;32.17
19672;BME280;9983;51.114;13.788;2023-09-07T13:46:38;99982.63;;;34.67;33.14
19672;BME280;9983;51.114;13.788;2023-09-07T13:51:42;99988.34;;;34.61;33.79
19672;BME280;9983;51.114;13.788;2023-09-07T13:56:42;99993.38;;;34.99;33.72
19672;BME280;9983;51.114;13.788;2023-09-07T14:01:45;99977.91;;;35.58;32.66
19672;BME280;9983;51.114;13.788;2023-09-07T14:06:45;99984.78;;;35.95;32.95
19672;BME280;9983;51.114;13.788;2023-09-07T14:11:45;99989.19;;;36.60;30.74
19672;BME280;9983;51.114;13.788;2023-09-07T14:16:45;99986.78;;;37.80;29.70
19672;BME280;9983;51.114;13.788;2023-09-07T14:21:46;99978.13;;;38.51;28.46
19672;BME280;9983;51.114;13.788;2023-09-07T14:26:46;99978.41;;;39.87;27.13
19672;BME280;9983;51.114;13.788;2023-09-07T14:31:46;99973.63;;;40.78;27.01
19672;BME280;9983;51.114;13.788;2023-09-07T14:36:46;99983.56;;;40.60;28.04
19672;BME280;9983;51.114;13.788;2023-09-07T14:41:48;99981.31;;;41.32;25.59
19672;BME280;9983;51.114;13.788;2023-09-07T14:46:49;99981.72;;;41.14;25.39
19672;BME280;9983;51.114;13.788;2023-09-07T14:51:50;99975.91;;;41.07;26.10
19672;BME280;9983;51.114;13.788;2023-09-07T14:56:50;99976.41;;;41.28;25.41
19672;BME280;9983;51.114;13.788;2023-09-07T15:01:51;99969.91;;;40.74;24.09
19672;BME280;9983;51.114;13.788;2023-09-07T15:06:52;99960.09;;;41.18;25.20
19672;BME280;9983;51.114;13.788;2023-09-07T15:11:52;99972.66;;;41.79;24.76
19672;BME280;9983;51.114;13.788;2023-09-07T15:16:53;99971.25;;;41.88;24.67
19672;BME280;9983;51.114;13.788;2023-09-07T15:21:53;99959.34;;;41.95;25.17
19672;BME280;9983;51.114;13.788;2023-09-07T15:26:54;99966.06;;;41.33;25.24
19672;BME280;9983;51.114;13.788;2023-09-07T15:31:54;99964.75;;;41.84;24.11
19672;BME280;9983;51.114;13.788;2023-09-07T15:36:54;99963.97;;;42.29;23.55
19672;BME280;9983;51.114;13.788;2023-09-07T15:41:55;99971.81;;;42.17;23.74
19672;BME280;9983;51.114;13.788;2023-09-07T15:46:56;99966.84;;;41.68;23.75
19672;BME280;9983;51.114;13.788;2023-09-07T15:51:56;99956.28;;;40.91;24.57
19672;BME280;9983;51.114;13.788;2023-09-07T15:56:56;99962.91;;;40.68;24.69
19672;BME280;9983;51.114;13.788;2023-09-07T16:01:57;99958.97;;;40.09;26.28
19672;BME280;9983;51.114;13.788;2023-09-07T16:06:57;99956.31;;;40.01;26.47
19672;BME280;9983;51.114;13.788;2023-09-07T16:11:58;99960.56;;;39.27;28.50
19672;BME280;9983;51.114;13.788;2023-09-07T16:16:58;99955.34;;;37.83;29.75
19672;BME280;9983;51.114;13.788;2023-09-07T16:21:59;99952.88;;;36.31;31.88
19672;BME280;9983;51.114;13.788;2023-09-07T16:27:00;99957.56;;;35.41;32.21
19672;BME280;9983;51.114;13.788;2023-09-07T16:32:00;99950.59;;;34.16;34.66
19672;BME280;9983;51.114;13.788;2023-09-07T16:37:00;99957.59;;;33.60;35.79
19672;BME280;9983;51.114;13.788;2023-09-07T16:42:01;99959.50;;;33.01;36.99
19672;BME280;9983;51.114;13.788;2023-09-07T16:47:01;99958.06;;;32.49;38.61
19672;BME280;9983;51.114;13.788;2023-09-07T16:52:02;99957.28;;;31.70;40.72
19672;BME280;9983;51.114;13.788;2023-09-07T16:57:02;99954.66;;;31.04;43.00
19672;BME280;9983;51.114;13.788;2023-09-07T17:02:03;99957.31;;;30.71;45.07
19672;BME280;9983;51.114;13.788;2023-09-07T17:07:04;99949.97;;;30.33;45.43
19672;BME280;9983;51.114;13.788;2023-09-07T17:12:04;99955.56;;;29.99;45.83
19672;BME280;9983;51.114;13.788;2023-09-07T17:17:08;99952.78;;;29.70;46.50
19672;BME280;9983;51.114;13.788;2023-09-07T17:22:08;99947.28;;;29.65;46.32
19672;BME280;9983;51.114;13.788;2023-09-07T17:27:09;99946.28;;;29.51;46.80
19672;BME280;9983;51.114;13.788;2023-09-07T17:32:09;99950.97;;;29.11;48.34
19672;BME280;9983;51.114;13.788;2023-09-07T17:37:09;99945.81;;;28.94;50.08
19672;BME280;9983;51.114;13.788;2023-09-07T17:42:09;99948.56;;;28.20;51.18
19672;BME280;9983;51.114;13.788;2023-09-07T17:47:10;99952.94;;;28.26;51.24
19672;BME280;9983;51.114;13.788;2023-09-07T17:52:10;99961.75;;;28.23;51.50
19672;BME280;9983;51.114;13.788;2023-09-07T17:57:10;99955.16;;;27.99;52.31
19672;BME280;9983;51.114;13.788;2023-09-07T18:02:22;99955.44;;;27.97;53.13
19672;BME280;9983;51.114;13.788;2023-09-07T18:07:24;99958.22;;;27.77;52.67
19672;BME280;9983;51.114;13.788;2023-09-07T18:12:24;99966.44;;;27.51;54.14
19672;BME280;9983;51.114;13.788;2023-09-07T18:17:24;99968.38;;;27.56;53.94
19672;BME280;9983;51.114;13.788;2023-09-07T18:22:25;99963.41;;;27.43;54.64
19672;BME280;9983;51.114;13.788;2023-09-07T18:27:25;99970.00;;;27.27;55.54
19672;BME280;9983;51.114;13.788;2023-09-07T18:32:26;99971.47;;;26.87;56.92
19672;BME280;9983;51.114;13.788;2023-09-07T18:37:27;99961.66;;;27.01;56.15
19672;BME280;9983;51.114;13.788;2023-09-07T18:42:28;99970.44;;;26.93;57.49
19672;BME280;9983;51.114;13.788;2023-09-07T18:47:28;99966.50;;;26.74;58.20
19672;BME280;9983;51.114;13.788;2023-09-07T18:52:30;99961.50;;;26.71;57.61
19672;BME280;9983;51.114;13.788;2023-09-07T18:57:31;99971.38;;;26.57;59.62
19672;BME280;9983;51.114;13.788;2023-09-07T19:02:31;99967.47;;;26.48;58.87
19672;BME280;9983;51.114;13.788;2023-09-07T19:07:31;99970.13;;;26.32;60.29
19672;BME280;9983;51.114;13.788;2023-09-07T19:12:32;99965.00;;;26.09;60.84
19672;BME280;9983;51.114;13.788;2023-09-07T19:17:33;99967.16;;;26.02;60.90
19672;BME280;9983;51.114;13.788;2023-09-07T19:22:34;99968.59;;;25.78;62.68
19672;BME280;9983;51.114;13.788;2023-09-07T19:27:34;99965.31;;;25.76;62.77
19672;BME280;9983;51.114;13.788;2023-09-07T19:32:35;99962.44;;;25.60;63.07
19672;BME280;9983;51.114;13.788;2023-09-07T19:37:35;99975.97;;;25.45;64.79
19672;BME280;9983;51.114;13.788;2023-09-07T19:42:35;99966.78;;;25.29;67.08
19672;BME280;9983;51.114;13.788;2023-09-07T19:47:35;99969.13;;;24.94;71.56
19672;BME280;9983;51.114;13.788;2023-09-07T19:52:36;99978.09;;;24.46;81.10
19672;BME280;9983;51.114;13.788;2023-09-07T19:57:37;99973.69;;;23.73;87.86
19672;BME280;9983;51.114;13.788;2023-09-07T20:02:37;99969.53;;;23.87;85.06
19672;BME280;9983;51.114;13.788;2023-09-07T20:07:40;99968.88;;;23.80;83.03
19672;BME280;9983;51.114;13.788;2023-09-07T20:12:43;99978.31;;;23.56;83.93
19672;BME280;9983;51.114;13.788;2023-09-07T20:17:43;99976.66;;;23.55;80.42
19672;BME280;9983;51.114;13.788;2023-09-07T20:22:43;99977.81;;;23.30;79.58
19672;BME280;9983;51.114;13.788;2023-09-07T20:27:44;99978.41;;;23.32;80.08
19672;BME280;9983;51.114;13.788;2023-09-07T20:32:44;99978.03;;;23.12;81.36
19672;BME280;9983;51.114;13.788;2023-09-07T20:37:44;99976.75;;;23.03;80.68
19672;BME280;9983;51.114;13.788;2023-09-07T20:42:45;99969.16;;;23.05;82.39
19672;BME280;9983;51.114;13.788;2023-09-07T20:47:46;99969.22;;;23.10;81.23
19672;BME280;9983;51.114;13.788;2023-09-07T20:52:46;99978.16;;;22.65;84.17
19672;BME280;9983;51.114;13.788;2023-09-07T20:57:47;99978.03;;;22.60;84.67
19672;BME280;9983;51.114;13.788;2023-09-07T21:02:48;99983.09;;;22.40;86.43
19672;BME280;9983;51.114;13.788;2023-09-07T21:07:49;99976.41;;;22.36;86.59
19672;BME280;9983;51.114;13.788;2023-09-07T21:12:49;99979.28;;;22.29;86.90
19672;BME280;9983;51.114;13.788;2023-09-07T21:17:49;99984.88;;;22.00;89.00
19672;BME280;9983;51.114;13.788;2023-09-07T21:22:50;99978.84;;;21.56;92.97
19672;BME280;9983;51.114;13.788;2023-09-07T21:27:50;99969.72;;;20.91;98.76
19672;BME280;9983;51.114;13.788;2023-09-07T21:32:50;99975.25;;;21.14;99.20
19672;BME280;9983;51.114;13.788;2023-09-07T21:37:50;99979.66;;;20.67;99.84
19672;BME280;9983;51.114;13.788;2023-09-07T21:42:51;99989.94;;;20.83;98.46
19672;BME280;9983;51.114;13.788;2023-09-07T21:47:51;99991.88;;;20.94;97.89
19672;BME280;9983;51.114;13.788;2023-09-07T21:52:52;99987.75;;;20.73;99.56
19672;BME280;9983;51.114;13.788;2023-09-07T21:57:52;99988.56;;;20.92;98.59
19672;BME280;9983;51.114;13.788;2023-09-07T22:02:52;99975.75;;;20.93;98.54
19672;BME280;9983;51.114;13.788;2023-09-07T22:07:53;99979.03;;;20.83;99.21
19672;BME280;9983;51.114;13.788;2023-09-07T22:12:53;99971.28;;;20.98;97.77
19672;BME280;9983;51.114;13.788;2023-09-07T22:17:58;99967.66;;;20.86;97.90
19672;BME280;9983;51.114;13.788;2023-09-07T22:22:59;99960.94;;;20.89;98.07
19672;BME280;9983;51.114;13.788;2023-09-07T22:28:01;99968.16;;;20.47;100.00
19672;BME280;9983;51.114;13.788;2023-09-07T22:33:03;99963.38;;;20.24;100.00
19672;BME280;9983;51.114;13.788;2023-09-07T22:38:03;99966.16;;;19.92;100.00
19672;BME280;9983;51.114;13.788;2023-09-07T22:43:03;99970.63;;;19.87;100.00
19672;BME280;9983;51.114;13.788;2023-09-07T22:48:06;99957.94;;;19.18;100.00
19672;BME280;9983;51.114;13.788;2023-09-07T22:53:06;99962.00;;;19.40;100.00
19672;BME280;9983;51.114;13.788;2023-09-07T22:58:10;99961.81;;;19.04;100.00
19672;BME280;9983;51.114;13.788;2023-09-07T23:03:10;99949.88;;;19.36;100.00
19672;BME280;9983;51.114;13.788;2023-09-07T23:08:11;99955.16;;;19.62;100.00
19672;BME280;9983;51.114;13.788;2023-09-07T23:13:12;99948.66;;;19.32;100.00
19672;BME280;9983;51.114;13.788;2023-09-07T23:18:12;99946.09;;;19.37;100.00
19672;BME280;9983;51.114;13.788;2023-09-07T23:23:12;99939.16;;;19.16;100.00
19672;BME280;9983;51.114;13.788;2023-09-07T23:28:13;99943.66;;;19.29;100.00
19672;BME280;9983;51.114;13.788;2023-09-07T23:33:13;99945.63;;;19.47;100.00
19672;BME280;9983;51.114;13.788;2023-09-07T23:38:13;99945.69;;;19.40;100.00
19672;BME280;9983;51.114;13.788;2023-09-07T23:43:13;99952.50;;;19.18;100.00
19672;BME280;9983;51.114;13.788;2023-09-07T23:48:14;99952.50;;;19.18;100.00
19672;BME280;9983;51.114;13.788;2023-09-07T23:53:14;99954.38;;;19.55;100.00
19672;BME280;9983;51.114;13.788;2023-09-07T23:58:14;99962.34;;;19.50;100.00
